createdAt,value
2023-04-18T04:55:13.499Z,100.00
2023-04-18T04:58:16.462Z,100.00
2023-04-18T05:01:19.267Z,100.00
2023-04-18T05:04:22.185Z,100.00
2023-04-18T05:07:25.174Z,100.00
2023-04-18T05:10:29.447Z,100.00
2023-04-18T05:13:32.161Z,100.00
2023-04-18T05:16:34.705Z,100.00
2023-04-18T05:19:37.278Z,100.00
2023-04-18T05:22:39.724Z,100.00
2023-04-18T05:25:43.594Z,100.00
2023-04-18T05:28:46.272Z,100.00
2023-04-18T05:31:48.723Z,100.00
2023-04-18T05:34:51.219Z,100.00
2023-04-18T05:37:53.715Z,100.00
2023-04-18T05:41:00.208Z,100.00
2023-04-18T05:44:05.734Z,100.00
2023-04-18T05:47:08.519Z,100.00
2023-04-18T05:50:11.303Z,100.00
2023-04-18T05:53:13.922Z,100.00
2023-04-18T05:56:17.729Z,100.00
2023-04-18T05:59:20.795Z,100.00
2023-04-18T06:02:23.439Z,100.00
2023-04-18T06:05:26.236Z,100.00
2023-04-18T06:08:28.846Z,100.00
2023-04-18T06:11:33.574Z,100.00
2023-04-18T06:14:36.057Z,100.00
2023-04-18T06:17:38.633Z,100.00
2023-04-18T06:20:42.099Z,100.00
2023-04-18T06:23:44.694Z,100.00
2023-04-18T06:26:48.530Z,100.00
2023-04-18T06:29:51.013Z,100.00
2023-04-18T06:32:53.610Z,100.00
2023-04-18T06:35:56.236Z,100.00
2023-04-18T06:38:58.693Z,100.00
2023-04-18T06:42:04.768Z,100.00
2023-04-18T06:45:10.556Z,100.00
2023-04-18T06:48:13.192Z,100.00
2023-04-18T06:51:15.630Z,100.00
2023-04-18T06:54:18.330Z,100.00
2023-04-18T06:57:22.188Z,100.00
2023-04-18T07:00:24.695Z,100.00
2023-04-18T07:03:27.416Z,100.00
2023-04-18T07:06:30.039Z,100.00
2023-04-18T07:09:32.810Z,100.00
2023-04-18T07:12:36.640Z,100.00
2023-04-18T07:15:39.158Z,100.00
2023-04-18T07:18:42.740Z,100.00
2023-04-18T07:21:46.008Z,100.00
2023-04-18T07:24:48.513Z,100.00
2023-04-18T07:27:52.484Z,100.00
2023-04-18T07:30:56.843Z,100.00
2023-04-18T07:33:59.662Z,100.00
2023-04-18T07:37:02.250Z,100.00
2023-04-18T07:40:05.743Z,100.00
2023-04-18T07:43:10.330Z,100.00
2023-04-18T07:46:12.934Z,100.00
2023-04-18T07:49:15.929Z,100.00
2023-04-18T07:52:18.594Z,100.00
2023-04-18T07:55:21.173Z,100.00
2023-04-18T07:58:25.283Z,100.00
2023-04-18T08:01:27.910Z,100.00
2023-04-18T08:04:30.774Z,100.00
2023-04-18T08:07:33.360Z,100.00
2023-04-18T08:10:35.928Z,100.00
2023-04-18T08:13:39.823Z,100.00
2023-04-18T08:16:42.362Z,100.00
2023-04-18T08:19:45.666Z,100.00
2023-04-18T08:23:05.145Z,100.00
2023-04-18T08:26:09.158Z,100.00
2023-04-18T08:29:13.157Z,100.00
2023-04-18T08:32:15.850Z,100.00
2023-04-18T08:35:18.295Z,100.00
2023-04-18T08:38:20.935Z,100.00
2023-04-18T08:41:24.119Z,100.00
2023-04-18T08:44:28.572Z,100.00
2023-04-18T08:47:31.129Z,100.00
2023-04-18T08:50:33.678Z,100.00
2023-04-18T08:53:36.886Z,100.00
2023-04-18T08:56:40.933Z,100.00
2023-04-18T08:59:48.349Z,100.00
2023-04-18T09:02:56.665Z,100.00
2023-04-18T09:06:08.352Z,100.00
2023-04-18T09:09:10.943Z,100.00
2023-04-18T09:12:15.306Z,100.00
2023-04-18T09:15:22.491Z,100.00
2023-04-18T09:18:24.996Z,100.00
2023-04-18T09:21:27.949Z,100.00
2023-04-18T09:24:30.512Z,100.00
2023-04-18T09:27:35.917Z,100.00
2023-04-18T09:30:42.244Z,100.00
2023-04-18T09:33:54.117Z,100.00
2023-04-18T09:37:08.192Z,100.00
2023-04-18T09:40:17.892Z,100.00
2023-04-18T09:43:21.803Z,100.00
2023-04-18T09:46:27.347Z,100.00
2023-04-18T09:49:30.213Z,100.00
2023-04-18T09:52:35.743Z,100.00
2023-04-18T09:55:40.017Z,100.00
2023-04-18T09:58:43.037Z,100.00
2023-04-18T10:01:48.695Z,100.00
2023-04-18T10:04:52.714Z,100.00
2023-04-18T10:07:56.160Z,100.00
2023-04-18T10:10:58.842Z,100.00
2023-04-18T10:14:04.992Z,100.00
2023-04-18T10:17:08.958Z,100.00
2023-04-18T10:20:19.906Z,100.00
2023-04-18T10:23:36.690Z,100.00
2023-04-18T10:26:50.171Z,100.00
2023-04-18T10:29:54.614Z,100.00
2023-04-18T10:32:58.491Z,100.00
2023-04-18T10:36:06.684Z,100.00
2023-04-18T10:39:22.258Z,100.00
2023-04-18T10:42:59.035Z,100.00
2023-04-18T10:46:23.829Z,100.00
2023-04-18T10:49:37.297Z,100.00
2023-04-18T10:52:40.212Z,100.00
2023-04-18T10:55:51.831Z,100.00
2023-04-18T10:58:54.633Z,100.00
2023-04-18T11:01:58.310Z,100.00
2023-04-18T11:05:04.675Z,100.00
2023-04-18T11:08:23.350Z,100.00
2023-04-18T11:11:26.008Z,100.00
2023-04-18T11:14:40.241Z,100.00
2023-04-18T11:17:42.914Z,100.00
2023-04-18T11:20:50.262Z,100.00
2023-04-18T11:23:52.870Z,100.00
2023-04-18T11:26:56.064Z,100.00
2023-04-18T11:29:58.838Z,100.00
2023-04-18T11:33:06.344Z,100.00
2023-04-18T11:36:10.817Z,100.00
2023-04-18T11:39:14.254Z,100.00
2023-04-18T11:42:16.774Z,100.00
2023-04-18T11:45:19.235Z,100.00
2023-04-18T11:48:22.490Z,100.00
2023-04-18T11:51:38.685Z,100.00
2023-04-18T11:54:42.620Z,100.00
2023-04-18T11:57:51.878Z,100.00
2023-04-18T12:00:54.393Z,100.00
2023-04-18T12:04:04.159Z,100.00
2023-04-18T12:07:08.152Z,100.00
2023-04-18T12:10:27.331Z,100.00
2023-04-18T12:13:33.267Z,100.00
2023-04-18T12:16:36.040Z,100.00
2023-04-18T12:19:38.524Z,100.00
2023-04-18T12:22:44.597Z,100.00
2023-04-18T12:25:59.773Z,100.00
2023-04-18T12:29:02.215Z,100.00
2023-04-18T12:32:04.947Z,100.00
2023-04-18T12:35:08.539Z,100.00
2023-04-18T12:38:12.524Z,100.00
2023-04-18T12:41:14.991Z,100.00
2023-04-18T12:44:17.771Z,100.00
2023-04-18T12:47:20.340Z,100.00
2023-04-18T12:50:25.568Z,100.00
2023-04-18T12:53:29.394Z,100.00
2023-04-18T12:56:31.869Z,100.00
2023-04-18T12:59:34.377Z,100.00
2023-04-18T13:02:37.455Z,100.00
2023-04-18T13:05:40.077Z,100.00
2023-04-18T13:08:44.506Z,100.00
2023-04-18T13:11:49.030Z,100.00
2023-04-18T13:14:52.092Z,100.00
2023-04-18T13:17:55.900Z,100.00
2023-04-18T13:20:58.418Z,100.00
2023-04-18T13:24:02.272Z,100.00
2023-04-18T13:27:10.281Z,100.00
2023-04-18T13:30:13.200Z,100.00
2023-04-18T13:33:15.727Z,100.00
2023-04-18T13:36:18.169Z,100.00
2023-04-18T13:39:24.274Z,100.00
2023-04-18T13:42:26.755Z,100.00
2023-04-18T13:45:29.274Z,100.00
2023-04-18T13:48:31.721Z,100.00
2023-04-18T13:51:34.534Z,100.00
2023-04-18T13:54:38.346Z,100.00
2023-04-18T13:57:41.149Z,100.00
2023-04-18T14:00:43.733Z,100.00
2023-04-18T14:03:47.422Z,100.00
2023-04-18T14:06:50.588Z,100.00
2023-04-18T14:09:54.642Z,100.00
2023-04-18T14:12:57.401Z,100.00
2023-04-18T14:16:00.203Z,100.00
2023-04-18T14:19:02.792Z,99.76
2023-04-18T14:22:05.286Z,96.32
2023-04-18T14:25:10.574Z,95.03
2023-04-18T14:28:13.306Z,92.40
2023-04-18T14:31:16.435Z,92.31
2023-04-18T14:34:18.905Z,91.05
2023-04-18T14:37:22.292Z,89.87
2023-04-18T14:40:26.169Z,91.16
2023-04-18T14:43:28.877Z,93.17
2023-04-18T14:46:31.470Z,96.02
2023-04-18T14:49:34.478Z,93.99
2023-04-18T14:52:37.013Z,93.94
2023-04-18T14:55:40.811Z,90.75
2023-04-18T14:58:43.815Z,91.67
2023-04-18T15:01:46.522Z,92.17
2023-04-18T15:04:49.476Z,95.48
2023-04-18T15:07:52.679Z,96.78
2023-04-18T15:10:56.536Z,94.75
2023-04-18T15:13:59.010Z,95.87
2023-04-18T15:17:02.832Z,97.52
2023-04-18T15:20:07.318Z,100.00
2023-04-18T15:23:13.562Z,100.00
2023-04-18T15:26:17.809Z,100.00
2023-04-18T15:29:20.625Z,100.00
2023-04-18T15:32:23.267Z,100.00
2023-04-18T15:35:26.164Z,100.00
2023-04-18T15:38:29.687Z,100.00
2023-04-18T15:41:35.740Z,100.00
2023-04-18T15:44:38.194Z,100.00
2023-04-18T15:47:41.306Z,100.00
2023-04-18T15:50:43.801Z,100.00
2023-04-18T15:53:46.441Z,100.00
2023-04-18T15:56:50.833Z,100.00
2023-04-18T15:59:53.305Z,100.00
2023-04-18T16:02:55.880Z,100.00
2023-04-18T16:05:58.408Z,100.00
2023-04-18T16:09:00.848Z,100.00
2023-04-18T16:12:07.115Z,100.00
2023-04-18T16:15:10.938Z,100.00
2023-04-18T16:18:13.525Z,100.00
2023-04-18T16:21:16.283Z,100.00
2023-04-18T16:24:21.691Z,100.00
2023-04-18T16:27:27.820Z,100.00
2023-04-18T16:30:30.512Z,100.00
2023-04-18T16:33:33.372Z,100.00
2023-04-18T16:36:35.936Z,100.00
2023-04-18T16:39:38.469Z,100.00
2023-04-18T16:42:42.323Z,100.00
2023-04-18T16:45:44.800Z,100.00
2023-04-18T16:48:48.598Z,100.00
2023-04-18T16:51:52.641Z,100.00
2023-04-18T16:54:55.105Z,100.00
2023-04-18T16:57:58.955Z,100.00
2023-04-18T17:01:02.430Z,100.00
2023-04-18T17:04:05.363Z,100.00
2023-04-18T17:07:08.208Z,100.00
2023-04-18T17:10:11.904Z,100.00
2023-04-18T17:13:15.734Z,100.00
2023-04-18T17:16:18.307Z,100.00
2023-04-18T17:19:21.310Z,100.00
2023-04-18T17:22:23.788Z,100.00
2023-04-18T17:25:26.280Z,100.00
2023-04-18T17:28:30.050Z,100.00
2023-04-18T17:31:32.822Z,100.00
2023-04-18T17:34:35.316Z,100.00
2023-04-18T17:37:37.783Z,100.00
2023-04-18T17:40:40.394Z,100.00
2023-04-18T17:43:44.369Z,100.00
2023-04-18T17:46:48.269Z,100.00
2023-04-18T17:49:51.930Z,100.00
2023-04-18T17:52:54.380Z,100.00
2023-04-18T17:55:59.202Z,100.00
2023-04-18T17:59:03.087Z,100.00
2023-04-18T18:02:06.128Z,100.00
2023-04-18T18:05:12.942Z,100.00
2023-04-18T18:08:15.954Z,100.00
2023-04-18T18:11:18.462Z,100.00
2023-04-18T18:14:22.242Z,100.00
2023-04-18T18:17:25.095Z,100.00
2023-04-18T18:20:27.743Z,100.00
2023-04-18T18:23:31.484Z,100.00
2023-04-18T18:26:36.010Z,100.00
2023-04-18T18:29:39.778Z,100.00
2023-04-18T18:32:42.378Z,100.00
2023-04-18T18:35:44.858Z,100.00
2023-04-18T18:38:47.367Z,100.00
2023-04-18T18:41:49.849Z,100.00
2023-04-18T18:44:53.824Z,100.00
2023-04-18T18:47:56.311Z,100.00
2023-04-18T18:50:58.811Z,100.00
2023-04-18T18:54:01.316Z,100.00
2023-04-18T18:57:03.845Z,100.00
2023-04-18T19:00:11.036Z,100.00
2023-04-18T19:03:13.629Z,100.00
2023-04-18T19:06:16.413Z,100.00
2023-04-18T19:09:18.897Z,100.00
2023-04-18T19:12:21.585Z,100.00
2023-04-18T19:15:25.789Z,100.00
2023-04-18T19:18:28.424Z,100.00
2023-04-18T19:21:31.351Z,100.00
2023-04-18T19:24:34.891Z,100.00
2023-04-18T19:27:38.949Z,100.00
2023-04-18T19:30:43.506Z,100.00
2023-04-18T19:33:45.989Z,100.00
2023-04-18T19:36:48.650Z,100.00
2023-04-18T19:39:51.181Z,100.00
2023-04-18T19:42:53.605Z,100.00
2023-04-18T19:45:57.671Z,100.00
2023-04-18T19:49:00.215Z,100.00
2023-04-18T19:52:02.838Z,100.00
2023-04-18T19:55:06.053Z,100.00
2023-04-18T19:58:08.567Z,100.00
2023-04-18T20:01:13.248Z,100.00
2023-04-18T20:04:15.963Z,100.00
2023-04-18T20:07:18.549Z,100.00
2023-04-18T20:10:22.273Z,100.00
2023-04-18T20:13:25.111Z,100.00
2023-04-18T20:16:29.007Z,100.00
2023-04-18T20:19:31.850Z,100.00
2023-04-18T20:22:34.305Z,100.00
2023-04-18T20:25:36.819Z,100.00
2023-04-18T20:28:39.494Z,100.00
2023-04-18T20:31:43.288Z,100.00
2023-04-18T20:34:46.716Z,100.00
2023-04-18T20:37:49.781Z,100.00
2023-04-18T20:40:53.242Z,100.00
2023-04-18T20:43:58.640Z,100.00
2023-04-18T20:47:02.450Z,100.00
2023-04-18T20:50:05.585Z,100.00
2023-04-18T20:53:08.056Z,100.00
2023-04-18T20:56:10.604Z,100.00
2023-04-18T20:59:13.195Z,100.00
2023-04-18T21:02:18.616Z,100.00
2023-04-18T21:05:21.299Z,100.00
2023-04-18T21:08:23.824Z,100.00
2023-04-18T21:11:26.348Z,100.00
2023-04-18T21:14:28.869Z,100.00
2023-04-18T21:17:32.795Z,100.00
2023-04-18T21:20:36.775Z,100.00
2023-04-18T21:23:42.960Z,100.00
2023-04-18T21:26:45.447Z,100.00
2023-04-18T21:29:48.037Z,100.00
2023-04-18T21:32:52.016Z,100.00
2023-04-18T21:35:54.478Z,100.00
2023-04-18T21:38:58.469Z,100.00
2023-04-18T21:42:01.765Z,100.00
